createdAt,value
2019-03-19T00:00:13.991Z,5.58
2019-03-19T00:02:42.321Z,5.23
2019-03-19T00:05:10.746Z,6.97
2019-03-19T00:07:38.985Z,6.65
2019-03-19T00:10:08.964Z,5.08
2019-03-19T00:12:37.226Z,5.42
2019-03-19T00:15:07.926Z,5.33
2019-03-19T00:17:36.187Z,6.47
2019-03-19T00:20:12.715Z,4.83
2019-03-19T00:22:40.997Z,6.45
2019-03-19T00:25:09.279Z,5.03
2019-03-19T00:27:37.512Z,4.47
2019-03-19T00:30:16.781Z,4.62
2019-03-19T00:32:45.053Z,4.50
2019-03-19T00:35:13.354Z,4.22
2019-03-19T00:37:41.669Z,5.03
2019-03-19T00:40:12.174Z,6.87
2019-03-19T00:42:40.412Z,4.60
2019-03-19T00:45:13.383Z,5.22
2019-03-19T00:47:41.621Z,4.97
2019-03-19T00:50:11.983Z,5.75
2019-03-19T00:52:40.217Z,6.10
2019-03-19T00:55:08.463Z,5.28
2019-03-19T00:57:36.791Z,4.95
2019-03-19T01:00:08.327Z,4.67
2019-03-19T01:02:36.623Z,4.85
2019-03-19T01:05:05.836Z,4.40
2019-03-19T01:07:34.101Z,4.50
2019-03-19T01:10:02.439Z,4.78
2019-03-19T01:12:30.735Z,5.25
2019-03-19T01:14:58.983Z,4.42
2019-03-19T01:17:27.350Z,4.12
2019-03-19T01:19:55.580Z,5.42
2019-03-19T01:22:23.846Z,3.90
2019-03-19T01:24:52.111Z,4.33
2019-03-19T01:27:20.410Z,5.25
2019-03-19T01:29:48.742Z,4.72
2019-03-19T01:32:17.000Z,5.92
2019-03-19T01:34:45.244Z,5.28
2019-03-19T01:37:13.493Z,5.75
2019-03-19T01:39:41.887Z,4.97
2019-03-19T01:42:10.224Z,6.05
2019-03-19T01:44:38.512Z,5.55
2019-03-19T01:47:06.834Z,5.22
2019-03-19T01:49:36.917Z,6.08
2019-03-19T01:52:05.192Z,5.30
2019-03-19T01:54:33.484Z,6.05
2019-03-19T01:57:01.725Z,4.83
2019-03-19T01:59:29.962Z,4.80
2019-03-19T02:01:58.224Z,4.70
2019-03-19T02:04:26.492Z,4.70
2019-03-19T02:06:54.762Z,5.42
2019-03-19T02:09:23.009Z,4.55
2019-03-19T02:11:51.392Z,6.47
2019-03-19T02:14:19.625Z,4.58
2019-03-19T02:16:47.885Z,5.17
2019-03-19T02:19:16.170Z,6.00
2019-03-19T02:21:47.320Z,5.78
2019-03-19T02:24:15.655Z,5.92
2019-03-19T02:26:43.994Z,4.90
2019-03-19T02:29:12.364Z,6.50
2019-03-19T02:31:40.649Z,5.60
2019-03-19T02:34:08.905Z,6.28
2019-03-19T02:36:37.293Z,6.17
2019-03-19T02:39:06.588Z,5.22
2019-03-19T02:41:34.877Z,4.72
2019-03-19T02:44:03.116Z,5.20
2019-03-19T02:46:31.400Z,6.60
2019-03-19T02:48:59.744Z,5.33
2019-03-19T02:51:27.971Z,4.87
2019-03-19T02:53:56.354Z,5.72
2019-03-19T02:56:32.355Z,5.12
2019-03-19T02:58:54.598Z,4.60
2019-03-19T03:01:22.854Z,6.58
2019-03-19T03:03:51.150Z,5.70
2019-03-19T03:06:19.421Z,6.30
2019-03-19T03:08:47.678Z,4.92
2019-03-19T03:11:15.912Z,5.25
2019-03-19T03:13:44.174Z,6.62
2019-03-19T03:16:12.444Z,5.15
2019-03-19T03:18:40.743Z,5.67
2019-03-19T03:21:08.971Z,5.72
2019-03-19T03:23:37.333Z,5.58
2019-03-19T03:26:05.571Z,6.15
2019-03-19T03:28:33.839Z,5.37
2019-03-19T03:31:02.076Z,5.85
2019-03-19T03:33:30.419Z,5.97
2019-03-19T03:35:58.649Z,5.12
2019-03-19T03:38:26.909Z,4.83
2019-03-19T03:40:55.182Z,5.30
2019-03-19T03:43:23.432Z,6.22
2019-03-19T03:45:51.718Z,7.05
2019-03-19T03:48:19.957Z,7.10
2019-03-19T03:50:48.213Z,5.40
2019-03-19T03:53:16.480Z,5.17
2019-03-19T03:55:44.746Z,4.97
2019-03-19T03:58:13.046Z,6.95
2019-03-19T04:00:41.309Z,5.70
2019-03-19T04:03:09.556Z,7.55
2019-03-19T04:05:37.815Z,7.78
2019-03-19T04:08:06.073Z,7.10
2019-03-19T04:10:34.326Z,6.28
2019-03-19T04:13:02.606Z,6.30
2019-03-19T04:15:31.096Z,5.72
2019-03-19T04:17:59.599Z,5.53
2019-03-19T04:20:27.890Z,7.17
2019-03-19T04:22:56.145Z,6.97
2019-03-19T04:25:24.399Z,8.10
2019-03-19T04:27:52.656Z,7.67
2019-03-19T04:30:21.185Z,7.17
2019-03-19T04:32:49.473Z,7.85
2019-03-19T04:35:17.870Z,7.35
2019-03-19T04:37:46.105Z,10.80
2019-03-19T04:40:15.078Z,6.50
2019-03-19T04:42:43.766Z,8.08
2019-03-19T04:45:14.126Z,8.33
2019-03-19T04:47:42.361Z,7.15
2019-03-19T04:50:14.704Z,8.15
2019-03-19T04:52:42.944Z,9.27
2019-03-19T04:55:12.433Z,8.20
2019-03-19T04:57:40.701Z,7.62
2019-03-19T05:00:17.816Z,7.35
2019-03-19T05:02:46.061Z,9.43
2019-03-19T05:05:14.302Z,9.88
2019-03-19T05:07:42.560Z,10.55
2019-03-19T05:10:12.551Z,9.05
2019-03-19T05:12:41.092Z,8.98
2019-03-19T05:15:09.768Z,9.50
2019-03-19T05:17:38.014Z,11.43
2019-03-19T05:20:09.246Z,8.80
2019-03-19T05:22:37.520Z,10.98
2019-03-19T05:25:06.648Z,8.75
2019-03-19T05:27:37.555Z,10.20
2019-03-19T05:30:12.456Z,11.25
2019-03-19T05:32:40.727Z,29.98
2019-03-19T05:35:09.748Z,17.17
2019-03-19T05:37:38.020Z,11.45
2019-03-19T05:40:09.261Z,8.68
2019-03-19T05:42:37.500Z,10.05
2019-03-19T05:45:08.609Z,10.03
2019-03-19T05:47:40.080Z,9.60
2019-03-19T05:50:09.928Z,10.63
2019-03-19T05:52:38.182Z,9.68
2019-03-19T05:55:08.066Z,11.50
2019-03-19T05:57:36.302Z,10.05
2019-03-19T06:00:16.023Z,10.53
2019-03-19T06:02:44.455Z,10.00
2019-03-19T06:05:12.991Z,11.12
2019-03-19T06:07:41.380Z,10.13
2019-03-19T06:10:14.158Z,11.68
2019-03-19T06:12:42.701Z,10.25
2019-03-19T06:15:14.795Z,10.15
2019-03-19T06:17:43.068Z,11.80
2019-03-19T06:20:18.621Z,9.93
2019-03-19T06:22:46.887Z,11.35
2019-03-19T06:25:15.133Z,11.15
2019-03-19T06:27:43.427Z,10.78
2019-03-19T06:30:17.733Z,12.05
2019-03-19T06:32:45.988Z,8.80
2019-03-19T06:35:15.059Z,11.63
2019-03-19T06:37:43.337Z,10.28
2019-03-19T06:40:14.464Z,8.78
2019-03-19T06:42:42.711Z,12.23
2019-03-19T06:45:18.283Z,9.53
2019-03-19T06:47:46.846Z,10.93
2019-03-19T06:50:18.925Z,10.05
2019-03-19T06:52:47.155Z,11.22
2019-03-19T06:55:20.027Z,12.37
2019-03-19T06:57:48.284Z,10.60
2019-03-19T07:00:17.790Z,10.90
2019-03-19T07:02:46.028Z,11.73
2019-03-19T07:05:15.281Z,17.98
2019-03-19T07:07:43.572Z,16.10
2019-03-19T07:10:13.467Z,12.75
2019-03-19T07:12:41.733Z,13.22
2019-03-19T07:15:15.545Z,13.80
2019-03-19T07:17:43.808Z,12.50
2019-03-19T07:20:20.264Z,12.68
2019-03-19T07:22:48.509Z,10.38
2019-03-19T07:25:16.779Z,11.15
2019-03-19T07:27:45.016Z,12.20
2019-03-19T07:30:20.408Z,9.95
2019-03-19T07:32:48.659Z,12.18
2019-03-19T07:35:16.930Z,13.38
2019-03-19T07:37:45.279Z,14.00
2019-03-19T07:40:14.719Z,14.07
2019-03-19T07:42:42.964Z,13.28
2019-03-19T07:45:16.022Z,13.10
2019-03-19T07:47:44.277Z,13.58
2019-03-19T07:50:14.557Z,13.45
2019-03-19T07:52:42.850Z,11.50
2019-03-19T07:55:11.092Z,12.50
2019-03-19T07:57:39.416Z,13.03
2019-03-19T08:00:17.810Z,11.95
2019-03-19T08:02:46.070Z,11.95
2019-03-19T08:05:14.324Z,12.07
2019-03-19T08:07:42.584Z,12.23
2019-03-19T08:10:12.458Z,15.43
2019-03-19T08:12:40.713Z,13.95
2019-03-19T08:15:16.064Z,13.00
2019-03-19T08:17:44.294Z,16.87
2019-03-19T08:20:16.043Z,12.50
2019-03-19T08:22:44.305Z,12.50
2019-03-19T08:25:16.210Z,14.55
2019-03-19T08:27:44.451Z,12.47
2019-03-19T08:30:24.541Z,15.93
2019-03-19T08:32:53.380Z,12.98
2019-03-19T08:35:21.629Z,12.25
2019-03-19T08:37:49.883Z,14.15
2019-03-19T08:40:18.776Z,14.10
2019-03-19T08:42:47.038Z,13.80
2019-03-19T08:45:20.579Z,14.47
2019-03-19T08:47:48.929Z,13.75
2019-03-19T08:50:20.424Z,13.60
2019-03-19T08:52:49.116Z,15.00
2019-03-19T08:55:17.855Z,13.18
2019-03-19T08:57:47.872Z,11.48
2019-03-19T09:00:23.546Z,11.95
2019-03-19T09:02:51.892Z,11.68
2019-03-19T09:05:20.210Z,12.50
2019-03-19T09:07:48.456Z,10.98
2019-03-19T09:10:19.062Z,14.07
2019-03-19T09:12:48.656Z,14.40
2019-03-19T09:15:25.074Z,13.62
2019-03-19T09:17:53.306Z,12.60
2019-03-19T09:20:21.616Z,13.28
2019-03-19T09:22:49.860Z,12.45
2019-03-19T09:25:20.145Z,12.23
2019-03-19T09:27:49.759Z,12.60
2019-03-19T09:30:20.178Z,13.70
2019-03-19T09:32:48.519Z,15.15
2019-03-19T09:35:16.808Z,13.45
2019-03-19T09:37:57.297Z,16.82
2019-03-19T09:40:20.019Z,15.35
2019-03-19T09:45:19.265Z,12.82
2019-03-19T09:47:49.163Z,13.75
2019-03-19T09:50:18.843Z,13.68
2019-03-19T09:52:48.789Z,13.45
2019-03-19T09:55:17.152Z,12.65
2019-03-19T09:57:45.402Z,11.85
2019-03-19T10:00:20.472Z,12.47
2019-03-19T10:02:48.721Z,12.15
2019-03-19T10:05:16.974Z,9.85
2019-03-19T10:07:47.359Z,9.90
2019-03-19T10:10:18.895Z,10.70
2019-03-19T10:12:47.131Z,9.68
2019-03-19T10:15:15.397Z,11.00
2019-03-19T10:17:51.782Z,10.90
2019-03-19T10:20:57.436Z,12.15
2019-03-19T10:22:56.868Z,10.58
2019-03-19T10:25:25.122Z,9.95
2019-03-19T10:27:53.376Z,8.93
2019-03-19T10:30:26.709Z,10.72
2019-03-19T10:32:54.947Z,8.23
2019-03-19T10:35:26.130Z,12.13
2019-03-19T10:37:54.387Z,13.35
2019-03-19T10:40:22.763Z,12.18
2019-03-19T10:42:51.026Z,12.03
2019-03-19T10:45:23.563Z,12.28
2019-03-19T10:47:51.840Z,15.08
2019-03-19T10:50:22.104Z,12.37
2019-03-19T10:52:50.386Z,11.88
2019-03-19T10:55:18.732Z,11.25
2019-03-19T10:57:48.692Z,12.70
2019-03-19T11:00:18.495Z,11.60
2019-03-19T11:02:46.741Z,11.33
2019-03-19T11:05:15.078Z,9.70
2019-03-19T11:07:46.469Z,10.10
2019-03-19T11:10:15.673Z,10.80
2019-03-19T11:12:43.988Z,9.05
2019-03-19T11:15:31.699Z,10.35
2019-03-19T11:18:00.290Z,38.92
2019-03-19T11:20:28.576Z,15.68
2019-03-19T11:22:56.801Z,9.73
2019-03-19T11:25:26.525Z,10.50
2019-03-19T11:27:54.833Z,6.35
2019-03-19T11:30:29.203Z,8.25
2019-03-19T11:33:00.230Z,12.73
2019-03-19T11:35:28.491Z,6.25
2019-03-19T11:37:56.735Z,8.45
2019-03-19T11:40:26.005Z,6.35
2019-03-19T11:42:56.004Z,6.10
2019-03-19T11:45:24.529Z,4.55
2019-03-19T11:47:52.812Z,3.67
2019-03-19T11:50:26.980Z,4.55
2019-03-19T11:52:58.348Z,7.15
2019-03-19T11:55:26.634Z,5.55
2019-03-19T11:57:57.862Z,6.97
2019-03-19T12:00:37.981Z,8.20
2019-03-19T12:03:14.995Z,8.65
2019-03-19T12:05:36.604Z,6.97
2019-03-19T12:08:05.194Z,5.55
2019-03-19T12:10:33.448Z,6.78
2019-03-19T12:13:01.674Z,9.38
2019-03-19T12:15:29.943Z,6.33
2019-03-19T12:17:58.224Z,8.30
2019-03-19T12:20:26.468Z,6.47
2019-03-19T12:22:54.728Z,9.88
2019-03-19T12:25:25.804Z,7.30
2019-03-19T12:27:54.116Z,9.03
2019-03-19T12:30:26.132Z,6.97
2019-03-19T12:32:53.397Z,6.83
2019-03-19T12:35:21.723Z,4.28
2019-03-19T12:37:49.973Z,5.87
2019-03-19T12:40:23.054Z,6.62
2019-03-19T12:45:22.711Z,6.95
2019-03-19T12:47:51.033Z,6.97
2019-03-19T12:50:26.099Z,7.55
2019-03-19T12:52:54.362Z,4.97
2019-03-19T12:55:22.644Z,6.08
2019-03-19T12:57:50.933Z,5.83
2019-03-19T13:00:33.455Z,4.33
2019-03-19T13:02:55.044Z,5.72
2019-03-19T13:05:23.286Z,5.30
2019-03-19T13:07:51.560Z,6.92
2019-03-19T13:10:23.121Z,4.67
2019-03-19T13:12:51.429Z,6.42
2019-03-19T13:15:20.152Z,7.62
2019-03-19T13:17:49.747Z,4.67
2019-03-19T13:20:22.395Z,3.95
2019-03-19T13:22:50.708Z,4.12
2019-03-19T13:25:29.436Z,5.10
2019-03-19T13:27:57.422Z,5.12
2019-03-19T13:30:29.971Z,5.83
2019-03-19T13:32:58.291Z,5.83
2019-03-19T13:35:26.534Z,3.98
2019-03-19T13:38:00.852Z,3.65
2019-03-19T13:40:26.419Z,5.47
2019-03-19T13:42:54.651Z,4.83
2019-03-19T13:45:23.748Z,5.08
2019-03-19T13:47:51.987Z,4.45
2019-03-19T13:50:21.077Z,5.35
2019-03-19T13:55:52.236Z,4.90
2019-03-19T13:58:35.456Z,4.95
2019-03-19T14:01:20.102Z,5.17
2019-03-19T14:06:35.810Z,5.65
2019-03-19T14:09:12.304Z,2.77
2019-03-19T14:11:40.498Z,4.75
2019-03-19T14:14:08.750Z,7.10
2019-03-19T14:16:37.001Z,4.90
2019-03-19T14:19:05.272Z,5.55
2019-03-19T14:21:33.499Z,4.50
2019-03-19T14:24:01.777Z,5.97
2019-03-19T14:26:30.042Z,5.72
2019-03-19T14:28:58.303Z,7.00
2019-03-19T14:31:26.557Z,7.10
2019-03-19T14:33:54.820Z,4.53
2019-03-19T14:36:23.079Z,6.25
2019-03-19T14:38:51.376Z,5.67
2019-03-19T14:41:19.655Z,6.67
2019-03-19T14:43:47.891Z,3.72
2019-03-19T14:46:16.163Z,7.05
2019-03-19T14:48:44.404Z,5.75
2019-03-19T14:51:12.650Z,6.33
2019-03-19T14:53:40.902Z,5.03
2019-03-19T14:56:09.168Z,5.92
2019-03-19T14:58:37.563Z,5.15
2019-03-19T15:01:05.873Z,5.92
2019-03-19T15:03:35.519Z,5.35
2019-03-19T15:06:03.767Z,5.42
2019-03-19T15:08:31.998Z,3.60
2019-03-19T15:11:00.272Z,6.87
2019-03-19T15:13:28.513Z,5.08
2019-03-19T15:15:56.851Z,7.83
2019-03-19T15:18:25.126Z,4.22
2019-03-19T15:20:53.496Z,6.87
2019-03-19T15:23:21.839Z,6.53
2019-03-19T15:25:50.089Z,6.55
2019-03-19T15:28:18.329Z,6.58
2019-03-19T15:30:46.602Z,4.55
2019-03-19T15:33:14.830Z,5.20
2019-03-19T15:35:43.093Z,5.50
2019-03-19T15:38:11.365Z,7.08
2019-03-19T15:40:39.613Z,5.60
2019-03-19T15:43:07.872Z,6.42
2019-03-19T15:45:36.111Z,12.78
2019-03-19T15:48:04.619Z,8.85
2019-03-19T15:50:32.963Z,12.28
2019-03-19T15:53:01.203Z,6.72
2019-03-19T15:55:29.449Z,5.75
2019-03-19T15:58:01.457Z,4.83
2019-03-19T16:00:29.735Z,6.85
2019-03-19T16:02:57.975Z,6.53
2019-03-19T16:05:26.274Z,6.53
2019-03-19T16:07:54.539Z,6.00
2019-03-19T16:10:22.773Z,5.83
2019-03-19T16:12:51.053Z,8.90
2019-03-19T16:15:21.108Z,5.95
2019-03-19T16:17:49.435Z,6.42
2019-03-19T16:20:19.626Z,6.53
2019-03-19T16:22:47.945Z,4.40
2019-03-19T16:25:16.188Z,6.25
2019-03-19T16:27:44.700Z,8.60
2019-03-19T16:30:16.204Z,5.58
2019-03-19T16:32:44.453Z,6.83
2019-03-19T16:35:12.893Z,5.55
2019-03-19T16:37:41.130Z,6.15
2019-03-19T16:40:12.656Z,9.58
2019-03-19T16:42:40.911Z,6.70
2019-03-19T16:45:10.627Z,15.15
2019-03-19T16:47:38.901Z,8.25
2019-03-19T16:50:10.430Z,7.08
2019-03-19T16:52:38.679Z,10.58
2019-03-19T16:55:09.475Z,8.98
2019-03-19T16:57:37.730Z,6.10
2019-03-19T17:00:09.218Z,12.58
2019-03-19T17:02:37.470Z,12.10
2019-03-19T17:05:07.955Z,7.80
2019-03-19T17:07:36.242Z,6.85
2019-03-19T17:10:10.355Z,8.70
2019-03-19T17:12:38.599Z,9.93
2019-03-19T17:15:09.786Z,7.58
2019-03-19T17:17:38.021Z,6.97
2019-03-19T17:20:09.288Z,7.33
2019-03-19T17:22:37.524Z,15.13
2019-03-19T17:25:12.019Z,12.30
2019-03-19T17:27:40.287Z,8.30
2019-03-19T17:30:17.099Z,8.03
2019-03-19T17:32:44.660Z,7.83
2019-03-19T17:35:12.919Z,8.18
2019-03-19T17:37:41.150Z,6.95
2019-03-19T17:40:12.117Z,6.55
2019-03-19T17:42:40.436Z,7.90
2019-03-19T17:45:10.507Z,9.88
2019-03-19T17:47:38.768Z,8.95
2019-03-19T17:50:12.859Z,7.58
2019-03-19T17:52:41.180Z,7.28
2019-03-19T17:55:11.658Z,8.05
2019-03-19T17:57:40.023Z,7.50
2019-03-19T18:00:13.909Z,8.10
2019-03-19T18:02:42.224Z,7.00
2019-03-19T18:05:10.545Z,9.85
2019-03-19T18:07:38.800Z,7.40
2019-03-19T18:10:13.931Z,9.85
2019-03-19T18:12:42.160Z,8.80
2019-03-19T18:15:15.094Z,11.60
2019-03-19T18:17:43.581Z,10.65
2019-03-19T18:20:13.940Z,10.18
2019-03-19T18:22:42.163Z,8.08
2019-03-19T18:25:15.003Z,9.50
2019-03-19T18:27:43.227Z,8.35
2019-03-19T18:30:14.137Z,6.95
2019-03-19T18:32:42.391Z,8.28
2019-03-19T18:35:10.646Z,10.63
2019-03-19T18:37:38.894Z,12.33
2019-03-19T18:40:19.854Z,8.18
2019-03-19T18:42:48.200Z,9.20
2019-03-19T18:45:17.267Z,9.10
2019-03-19T18:47:45.582Z,11.00
2019-03-19T18:50:20.580Z,8.95
2019-03-19T18:52:48.855Z,11.65
2019-03-19T18:55:17.165Z,8.50
2019-03-19T18:57:45.517Z,9.48
2019-03-19T19:00:20.051Z,11.22
2019-03-19T19:02:50.821Z,9.65
2019-03-19T19:05:19.545Z,12.00
2019-03-19T19:07:47.805Z,8.85
2019-03-19T19:10:21.053Z,9.88
2019-03-19T19:15:20.217Z,14.28
2019-03-19T19:17:48.483Z,10.68
2019-03-19T19:20:17.446Z,12.00
2019-03-19T19:22:45.688Z,10.32
2019-03-19T19:25:19.342Z,12.85
2019-03-19T19:27:47.585Z,10.55
2019-03-19T19:30:21.087Z,12.45
2019-03-19T19:33:00.457Z,14.35
2019-03-19T19:35:19.312Z,12.13
2019-03-19T19:37:47.578Z,13.78
2019-03-19T19:40:17.618Z,16.17
2019-03-19T19:42:45.883Z,22.70
2019-03-19T19:45:15.009Z,27.60
2019-03-19T19:47:43.268Z,22.32
2019-03-19T19:50:16.737Z,12.70
2019-03-19T19:52:45.010Z,17.12
2019-03-19T19:55:14.084Z,14.90
2019-03-19T19:57:42.329Z,15.28
2019-03-19T20:00:18.898Z,13.75
2019-03-19T20:02:47.160Z,16.65
2019-03-19T20:05:15.445Z,10.95
2019-03-19T20:07:43.700Z,12.20
2019-03-19T20:10:27.312Z,21.73
2019-03-19T20:12:55.593Z,33.00
2019-03-19T20:15:23.853Z,26.90
2019-03-19T20:17:52.122Z,12.63
2019-03-19T20:20:26.673Z,15.53
2019-03-19T20:22:54.934Z,26.65
2019-03-19T20:25:23.191Z,47.20
2019-03-19T20:27:51.515Z,24.63
2019-03-19T20:30:26.735Z,19.10
2019-03-19T20:32:55.007Z,14.10
2019-03-19T20:35:23.253Z,14.45
2019-03-19T20:37:51.587Z,15.68
2019-03-19T20:40:19.852Z,11.03
2019-03-19T20:42:48.176Z,14.45
2019-03-19T20:45:25.813Z,9.85
2019-03-19T20:47:54.050Z,12.68
2019-03-19T20:50:28.052Z,12.98
2019-03-19T20:52:56.333Z,12.68
2019-03-19T20:55:24.647Z,10.93
2019-03-19T20:57:52.884Z,12.68
2019-03-19T21:00:21.226Z,13.43
2019-03-19T21:02:49.494Z,20.72
2019-03-19T21:05:17.752Z,13.30
2019-03-19T21:07:46.034Z,11.40
2019-03-19T21:10:19.082Z,13.03
2019-03-19T21:12:47.411Z,13.18
2019-03-19T21:15:18.188Z,17.60
2019-03-19T21:17:47.473Z,22.65
2019-03-19T21:20:15.701Z,22.27
2019-03-19T21:22:43.962Z,25.92
2019-03-19T21:25:12.204Z,29.55
2019-03-19T21:27:40.495Z,24.72
2019-03-19T21:30:16.760Z,20.60
2019-03-19T21:32:45.090Z,16.07
2019-03-19T21:35:13.368Z,21.82
2019-03-19T21:37:41.607Z,20.43
2019-03-19T21:40:14.677Z,15.75
2019-03-19T21:42:42.927Z,16.42
2019-03-19T21:45:16.353Z,15.13
2019-03-19T21:47:44.653Z,17.98
2019-03-19T21:50:17.004Z,16.57
2019-03-19T21:52:45.252Z,14.33
2019-03-19T21:55:14.348Z,15.63
2019-03-19T21:57:42.880Z,16.12
2019-03-19T22:00:14.354Z,14.68
2019-03-19T22:02:42.662Z,29.85
2019-03-19T22:05:10.914Z,20.52
2019-03-19T22:07:39.934Z,16.23
2019-03-19T22:10:13.822Z,14.98
2019-03-19T22:12:42.098Z,16.90
2019-03-19T22:15:13.456Z,16.37
2019-03-19T22:17:41.782Z,15.43
2019-03-19T22:20:10.158Z,14.70
2019-03-19T22:22:38.399Z,15.95
2019-03-19T22:25:09.294Z,11.33
2019-03-19T22:27:37.560Z,19.50
2019-03-19T22:30:17.125Z,16.62
2019-03-19T22:32:45.667Z,18.35
2019-03-19T22:38:01.926Z,16.65
2019-03-19T22:40:30.197Z,16.75
2019-03-19T22:42:58.435Z,15.05
2019-03-19T22:45:26.683Z,14.40
2019-03-19T22:47:54.991Z,13.18
2019-03-19T22:50:23.233Z,13.98
2019-03-19T22:52:51.598Z,20.15
2019-03-19T22:55:28.434Z,22.58
2019-03-19T22:57:49.907Z,18.27
2019-03-19T23:00:37.244Z,18.70
2019-03-19T23:03:06.615Z,19.02
2019-03-19T23:05:34.916Z,18.90
2019-03-19T23:08:03.170Z,17.25
2019-03-19T23:10:31.427Z,14.30
2019-03-19T23:12:59.714Z,15.65
2019-03-19T23:15:27.956Z,17.50
2019-03-19T23:17:56.217Z,17.60
2019-03-19T23:20:24.461Z,14.50
2019-03-19T23:22:52.708Z,14.47
2019-03-19T23:25:21.331Z,16.87
2019-03-19T23:27:49.583Z,12.47
2019-03-19T23:30:19.267Z,11.60
2019-03-19T23:32:47.529Z,14.07
2019-03-19T23:35:15.787Z,13.10
2019-03-19T23:37:44.039Z,13.00
2019-03-19T23:40:16.726Z,14.87
2019-03-19T23:42:44.979Z,12.98
2019-03-19T23:45:13.512Z,10.23
2019-03-19T23:47:41.896Z,12.65
2019-03-19T23:50:11.831Z,14.40
2019-03-19T23:52:40.075Z,10.35
2019-03-19T23:55:09.064Z,12.95
2019-03-19T23:57:37.326Z,12.10
